sensor_id;sensor_type;location;lat;lon;timestamp;pressure;altitude;pressure_sealevel;temperature;humidity
62800;BME280;48842;51.046;13.796;2022-08-21T00:00:16;100285.06;;;22.32;nan
62800;BME280;48842;51.046;13.796;2022-08-21T00:02:51;100281.47;;;22.33;nan
62800;BME280;48842;51.046;13.796;2022-08-21T00:05:17;100277.88;;;22.34;nan
62800;BME280;48842;51.046;13.796;2022-08-21T00:07:42;100280.56;;;22.34;nan
62800;BME280;48842;51.046;13.796;2022-08-21T00:10:08;100263.66;;;22.34;nan
62800;BME280;48842;51.046;13.796;2022-08-21T00:12:33;100267.25;;;22.33;nan
62800;BME280;48842;51.046;13.796;2022-08-21T00:14:58;100277.94;;;22.33;nan
62800;BME280;48842;51.046;13.796;2022-08-21T00:17:24;100273.47;;;22.33;nan
62800;BME280;48842;51.046;13.796;2022-08-21T00:19:49;100276.16;;;22.33;nan
62800;BME280;48842;51.046;13.796;2022-08-21T00:22:14;100277.00;;;22.34;nan
62800;BME280;48842;51.046;13.796;2022-08-21T00:24:39;100277.00;;;22.34;nan
62800;BME280;48842;51.046;13.796;2022-08-21T00:27:05;100278.81;;;22.33;nan
62800;BME280;48842;51.046;13.796;2022-08-21T00:29:30;100269.06;;;22.32;nan
62800;BME280;48842;51.046;13.796;2022-08-21T00:31:55;100277.94;;;22.33;nan
62800;BME280;48842;51.046;13.796;2022-08-21T00:34:20;100278.84;;;22.31;nan
62800;BME280;48842;51.046;13.796;2022-08-21T00:36:46;100276.16;;;22.33;nan
62800;BME280;48842;51.046;13.796;2022-08-21T00:39:11;100270.81;;;22.33;nan
62800;BME280;48842;51.046;13.796;2022-08-21T00:41:38;100265.47;;;22.33;nan
62800;BME280;48842;51.046;13.796;2022-08-21T00:44:07;100271.66;;;22.34;nan
62800;BME280;48842;51.046;13.796;2022-08-21T00:46:32;100269.00;;;22.34;nan
62800;BME280;48842;51.046;13.796;2022-08-21T00:48:58;100268.06;;;22.35;nan
62800;BME280;48842;51.046;13.796;2022-08-21T00:51:27;100268.06;;;22.35;nan
62800;BME280;48842;51.046;13.796;2022-08-21T00:53:57;100267.22;;;22.34;nan
62800;BME280;48842;51.046;13.796;2022-08-21T00:56:25;100273.31;;;22.36;nan
62800;BME280;48842;51.046;13.796;2022-08-21T00:58:52;100268.06;;;22.35;nan
62800;BME280;48842;51.046;13.796;2022-08-21T01:01:19;100276.84;;;22.37;nan
62800;BME280;48842;51.046;13.796;2022-08-21T01:03:45;100275.16;;;22.36;nan
62800;BME280;48842;51.046;13.796;2022-08-21T01:06:11;100279.53;;;22.37;nan
62800;BME280;48842;51.046;13.796;2022-08-21T01:08:36;100274.25;;;22.35;nan
62800;BME280;48842;51.046;13.796;2022-08-21T01:11:03;100286.81;;;22.33;nan
62800;BME280;48842;51.046;13.796;2022-08-21T01:13:31;100281.47;;;22.33;nan
62800;BME280;48842;51.046;13.796;2022-08-21T01:15:59;100285.06;;;22.32;nan
62800;BME280;48842;51.046;13.796;2022-08-21T01:18:26;100277.19;;;22.29;nan
62800;BME280;48842;51.046;13.796;2022-08-21T01:21:13;100285.56;;;22.21;nan
62800;BME280;48842;51.046;13.796;2022-08-21T01:23:42;100288.28;;;22.20;nan
62800;BME280;48842;51.046;13.796;2022-08-21T01:26:08;100276.00;;;22.16;nan
62800;BME280;48842;51.046;13.796;2022-08-21T01:28:41;100277.09;;;22.11;nan
62800;BME280;48842;51.046;13.796;2022-08-21T01:31:08;100280.59;;;22.12;nan
62800;BME280;48842;51.046;13.796;2022-08-21T01:33:35;100278.06;;;22.09;nan
62800;BME280;48842;51.046;13.796;2022-08-21T01:36:01;100287.16;;;22.05;nan
62800;BME280;48842;51.046;13.796;2022-08-21T01:38:26;100278.28;;;22.04;nan
62800;BME280;48842;51.046;13.796;2022-08-21T01:40:51;100281.88;;;22.03;nan
62800;BME280;48842;51.046;13.796;2022-08-21T01:43:16;100275.69;;;22.03;nan
62800;BME280;48842;51.046;13.796;2022-08-21T01:45:42;100279.28;;;22.02;nan
62800;BME280;48842;51.046;13.796;2022-08-21T01:48:07;100282.09;;;21.99;nan
62800;BME280;48842;51.046;13.796;2022-08-21T01:50:33;100283.84;;;22.00;nan
62800;BME280;48842;51.046;13.796;2022-08-21T01:52:59;100279.34;;;22.00;nan
62800;BME280;48842;51.046;13.796;2022-08-21T01:55:24;100279.34;;;22.00;nan
62800;BME280;48842;51.046;13.796;2022-08-21T01:57:49;100286.50;;;22.00;nan
62800;BME280;48842;51.046;13.796;2022-08-21T02:00:17;100287.50;;;21.97;nan
62800;BME280;48842;51.046;13.796;2022-08-21T02:02:43;100296.50;;;21.94;nan
62800;BME280;48842;51.046;13.796;2022-08-21T02:05:10;100281.53;;;21.92;nan
62800;BME280;48842;51.046;13.796;2022-08-21T02:07:41;100287.84;;;21.89;nan
62800;BME280;48842;51.046;13.796;2022-08-21T02:10:09;100287.84;;;21.89;nan
62800;BME280;48842;51.046;13.796;2022-08-21T02:12:35;100285.25;;;21.88;nan
62800;BME280;48842;51.046;13.796;2022-08-21T02:15:03;100289.69;;;21.87;nan
62800;BME280;48842;51.046;13.796;2022-08-21T02:17:40;100292.28;;;21.89;nan
62800;BME280;48842;51.046;13.796;2022-08-21T02:20:06;100285.25;;;21.88;nan
62800;BME280;48842;51.046;13.796;2022-08-21T02:22:31;100276.56;;;21.83;nan
62800;BME280;48842;51.046;13.796;2022-08-21T02:24:56;100276.78;;;21.78;nan
62800;BME280;48842;51.046;13.796;2022-08-21T02:27:23;100271.38;;;21.79;nan
62800;BME280;48842;51.046;13.796;2022-08-21T02:29:48;100274.97;;;21.78;nan
62800;BME280;48842;51.046;13.796;2022-08-21T02:32:14;100275.78;;;21.81;nan
62800;BME280;48842;51.046;13.796;2022-08-21T02:34:39;100278.44;;;21.81;nan
62800;BME280;48842;51.046;13.796;2022-08-21T02:37:04;100280.19;;;21.82;nan
62800;BME280;48842;51.046;13.796;2022-08-21T02:39:30;100283.66;;;21.84;nan
62800;BME280;48842;51.046;13.796;2022-08-21T02:41:55;100283.66;;;21.84;nan
62800;BME280;48842;51.046;13.796;2022-08-21T02:44:20;100271.09;;;21.86;nan
62800;BME280;48842;51.046;13.796;2022-08-21T02:46:45;100275.66;;;21.84;nan
62800;BME280;48842;51.046;13.796;2022-08-21T02:49:11;100287.09;;;21.86;nan
62800;BME280;48842;51.046;13.796;2022-08-21T02:51:36;100278.31;;;21.84;nan
62800;BME280;48842;51.046;13.796;2022-08-21T02:54:01;100267.66;;;21.84;nan
62800;BME280;48842;51.046;13.796;2022-08-21T02:56:26;100274.97;;;21.78;nan
62800;BME280;48842;51.046;13.796;2022-08-21T02:58:52;100268.06;;;21.74;nan
62800;BME280;48842;51.046;13.796;2022-08-21T03:01:18;100271.66;;;21.73;nan
62800;BME280;48842;51.046;13.796;2022-08-21T03:03:45;100268.91;;;21.75;nan
62800;BME280;48842;51.046;13.796;2022-08-21T03:06:14;100262.72;;;21.74;nan
62800;BME280;48842;51.046;13.796;2022-08-21T03:08:40;100271.50;;;21.76;nan
62800;BME280;48842;51.046;13.796;2022-08-21T03:11:07;100263.44;;;21.78;nan
62800;BME280;48842;51.046;13.796;2022-08-21T03:13:32;100269.63;;;21.78;nan
62800;BME280;48842;51.046;13.796;2022-08-21T03:15:58;100266.03;;;21.79;nan
62800;BME280;48842;51.046;13.796;2022-08-21T03:18:23;100266.94;;;21.80;nan
62800;BME280;48842;51.046;13.796;2022-08-21T03:20:48;100273.97;;;21.81;nan
62800;BME280;48842;51.046;13.796;2022-08-21T03:23:14;100274.88;;;21.82;nan
62800;BME280;48842;51.046;13.796;2022-08-21T03:25:40;100276.56;;;21.83;nan
62800;BME280;48842;51.046;13.796;2022-08-21T03:28:08;100267.66;;;21.84;nan
62800;BME280;48842;51.046;13.796;2022-08-21T03:30:33;100259.56;;;21.85;nan
62800;BME280;48842;51.046;13.796;2022-08-21T03:32:59;100269.38;;;21.85;nan
62800;BME280;48842;51.046;13.796;2022-08-21T03:35:26;100271.09;;;21.86;nan
62800;BME280;48842;51.046;13.796;2022-08-21T03:37:51;100278.19;;;21.87;nan
62800;BME280;48842;51.046;13.796;2022-08-21T03:40:18;100301.25;;;21.88;nan
62800;BME280;48842;51.046;13.796;2022-08-21T03:42:44;100302.19;;;21.87;nan
62800;BME280;48842;51.046;13.796;2022-08-21T03:45:13;100292.44;;;21.86;nan
62800;BME280;48842;51.046;13.796;2022-08-21T03:47:38;100297.78;;;21.86;nan
62800;BME280;48842;51.046;13.796;2022-08-21T03:50:04;100298.78;;;21.83;nan
62800;BME280;48842;51.046;13.796;2022-08-21T03:52:30;100296.97;;;21.84;nan
62800;BME280;48842;51.046;13.796;2022-08-21T03:54:55;100304.97;;;21.84;nan
62800;BME280;48842;51.046;13.796;2022-08-21T03:57:21;100297.97;;;21.81;nan
62800;BME280;48842;51.046;13.796;2022-08-21T03:59:46;100293.59;;;21.80;nan
62800;BME280;48842;51.046;13.796;2022-08-21T04:02:14;100302.44;;;21.81;nan
62800;BME280;48842;51.046;13.796;2022-08-21T04:04:42;100298.03;;;21.79;nan
62800;BME280;48842;51.046;13.796;2022-08-21T04:07:07;100304.31;;;21.78;nan
62800;BME280;48842;51.046;13.796;2022-08-21T04:09:32;100298.97;;;21.78;nan
62800;BME280;48842;51.046;13.796;2022-08-21T04:11:58;100301.59;;;21.80;nan
62800;BME280;48842;51.046;13.796;2022-08-21T04:14:24;100306.97;;;21.78;nan
62800;BME280;48842;51.046;13.796;2022-08-21T04:16:49;100306.97;;;21.78;nan
62800;BME280;48842;51.046;13.796;2022-08-21T04:19:15;100306.13;;;21.78;nan
62800;BME280;48842;51.046;13.796;2022-08-21T04:21:40;100308.84;;;21.76;nan
62800;BME280;48842;51.046;13.796;2022-08-21T04:24:07;100306.19;;;21.76;nan
62800;BME280;48842;51.046;13.796;2022-08-21T04:26:35;100312.44;;;21.75;nan
62800;BME280;48842;51.046;13.796;2022-08-21T04:29:01;100314.25;;;21.75;nan
62800;BME280;48842;51.046;13.796;2022-08-21T04:31:26;100312.44;;;21.75;nan
62800;BME280;48842;51.046;13.796;2022-08-21T04:33:53;100307.09;;;21.75;nan
62800;BME280;48842;51.046;13.796;2022-08-21T04:36:19;100308.06;;;21.74;nan
62800;BME280;48842;51.046;13.796;2022-08-21T04:38:44;100305.41;;;21.74;nan
62800;BME280;48842;51.046;13.796;2022-08-21T04:41:09;100306.25;;;21.75;nan
62800;BME280;48842;51.046;13.796;2022-08-21T04:43:35;100301.84;;;21.74;nan
62800;BME280;48842;51.046;13.796;2022-08-21T04:46:00;100299.09;;;21.75;nan
62800;BME280;48842;51.046;13.796;2022-08-21T04:48:25;100308.00;;;21.76;nan
62800;BME280;48842;51.046;13.796;2022-08-21T04:50:56;100304.38;;;21.77;nan
62800;BME280;48842;51.046;13.796;2022-08-21T04:53:26;100305.25;;;21.77;nan
62800;BME280;48842;51.046;13.796;2022-08-21T04:55:56;100310.59;;;21.77;nan
62800;BME280;48842;51.046;13.796;2022-08-21T04:58:25;100317.69;;;21.77;nan
62800;BME280;48842;51.046;13.796;2022-08-21T05:00:53;100315.94;;;21.77;nan
62800;BME280;48842;51.046;13.796;2022-08-21T05:03:19;100321.25;;;21.77;nan
62800;BME280;48842;51.046;13.796;2022-08-21T05:05:46;100320.31;;;21.78;nan
62800;BME280;48842;51.046;13.796;2022-08-21T05:08:14;100335.38;;;21.79;nan
62800;BME280;48842;51.046;13.796;2022-08-21T05:10:41;100336.28;;;21.80;nan
62800;BME280;48842;51.046;13.796;2022-08-21T05:13:07;100327.31;;;21.81;nan
62800;BME280;48842;51.046;13.796;2022-08-21T05:15:32;100322.88;;;21.82;nan
62800;BME280;48842;51.046;13.796;2022-08-21T05:17:57;100319.31;;;21.81;nan
62800;BME280;48842;51.046;13.796;2022-08-21T05:20:23;100314.78;;;21.83;nan
62800;BME280;48842;51.046;13.796;2022-08-21T05:22:48;100323.66;;;21.84;nan
62800;BME280;48842;51.046;13.796;2022-08-21T05:25:13;100323.59;;;21.85;nan
62800;BME280;48842;51.046;13.796;2022-08-21T05:27:39;100319.09;;;21.86;nan
62800;BME280;48842;51.046;13.796;2022-08-21T05:30:08;100322.59;;;21.88;nan
62800;BME280;48842;51.046;13.796;2022-08-21T05:32:34;100320.84;;;21.87;nan
62800;BME280;48842;51.046;13.796;2022-08-21T05:34:59;100324.31;;;21.89;nan
62800;BME280;48842;51.046;13.796;2022-08-21T05:37:25;100321.59;;;21.90;nan
62800;BME280;48842;51.046;13.796;2022-08-21T05:39:50;100324.19;;;21.92;nan
62800;BME280;48842;51.046;13.796;2022-08-21T05:42:15;100329.47;;;21.93;nan
62800;BME280;48842;51.046;13.796;2022-08-21T05:44:41;100327.66;;;21.94;nan
62800;BME280;48842;51.046;13.796;2022-08-21T05:47:08;100324.91;;;21.95;nan
62800;BME280;48842;51.046;13.796;2022-08-21T05:49:34;100319.50;;;21.97;nan
62800;BME280;48842;51.046;13.796;2022-08-21T05:52:00;100328.38;;;21.97;nan
62800;BME280;48842;51.046;13.796;2022-08-21T05:54:26;100331.00;;;21.99;nan
62800;BME280;48842;51.046;13.796;2022-08-21T05:56:51;100331.84;;;22.00;nan
62800;BME280;48842;51.046;13.796;2022-08-21T05:59:17;100333.59;;;22.01;nan
62800;BME280;48842;51.046;13.796;2022-08-21T06:01:43;100330.88;;;22.02;nan
62800;BME280;48842;51.046;13.796;2022-08-21T06:04:08;100334.38;;;22.03;nan
62800;BME280;48842;51.046;13.796;2022-08-21T06:06:35;100330.88;;;22.02;nan
62800;BME280;48842;51.046;13.796;2022-08-21T06:09:00;100331.72;;;22.03;nan
62800;BME280;48842;51.046;13.796;2022-08-21T06:11:25;100337.91;;;22.03;nan
62800;BME280;48842;51.046;13.796;2022-08-21T06:13:51;100341.41;;;22.05;nan
62800;BME280;48842;51.046;13.796;2022-08-21T06:16:16;100343.94;;;22.08;nan
62800;BME280;48842;51.046;13.796;2022-08-21T06:18:43;100343.84;;;22.10;nan
62800;BME280;48842;51.046;13.796;2022-08-21T06:21:09;100349.06;;;22.13;nan
62800;BME280;48842;51.046;13.796;2022-08-21T06:23:36;100345.41;;;22.16;nan
62800;BME280;48842;51.046;13.796;2022-08-21T06:26:02;100339.13;;;22.17;nan
62800;BME280;48842;51.046;13.796;2022-08-21T06:28:29;100333.78;;;22.17;nan
62800;BME280;48842;51.046;13.796;2022-08-21T06:30:55;100330.16;;;22.18;nan
62800;BME280;48842;51.046;13.796;2022-08-21T06:33:20;100323.06;;;22.18;nan
62800;BME280;48842;51.046;13.796;2022-08-21T06:35:45;100331.13;;;22.17;nan
62800;BME280;48842;51.046;13.796;2022-08-21T06:38:11;100332.97;;;22.14;nan
62800;BME280;48842;51.046;13.796;2022-08-21T06:40:36;100326.72;;;22.16;nan
62800;BME280;48842;51.046;13.796;2022-08-21T06:43:16;100320.44;;;22.17;nan
62800;BME280;48842;51.046;13.796;2022-08-21T06:45:42;100315.03;;;22.18;nan
62800;BME280;48842;51.046;13.796;2022-08-21T06:48:08;100320.31;;;22.20;nan
62800;BME280;48842;51.046;13.796;2022-08-21T06:50:33;100319.28;;;22.22;nan
62800;BME280;48842;51.046;13.796;2022-08-21T06:53:08;100313.94;;;22.22;nan
62800;BME280;48842;51.046;13.796;2022-08-21T06:55:34;100328.97;;;22.25;nan
62800;BME280;48842;51.046;13.796;2022-08-21T06:57:59;100332.50;;;22.25;nan
62800;BME280;48842;51.046;13.796;2022-08-21T07:00:25;100335.13;;;22.27;nan
62800;BME280;48842;51.046;13.796;2022-08-21T07:02:51;100334.16;;;22.28;nan
62800;BME280;48842;51.046;13.796;2022-08-21T07:05:16;100333.22;;;22.29;nan
62800;BME280;48842;51.046;13.796;2022-08-21T07:07:42;100331.34;;;22.31;nan
62800;BME280;48842;51.046;13.796;2022-08-21T07:10:07;100328.63;;;22.33;nan
62800;BME280;48842;51.046;13.796;2022-08-21T07:12:33;100332.13;;;22.35;nan
62800;BME280;48842;51.046;13.796;2022-08-21T07:14:58;100329.47;;;22.35;nan
62800;BME280;48842;51.046;13.796;2022-08-21T07:17:23;100325.84;;;22.36;nan
62800;BME280;48842;51.046;13.796;2022-08-21T07:19:48;100328.81;;;22.28;nan
62800;BME280;48842;51.046;13.796;2022-08-21T07:22:18;100326.16;;;22.28;nan
62800;BME280;48842;51.046;13.796;2022-08-21T07:24:45;100321.09;;;22.22;nan
62800;BME280;48842;51.046;13.796;2022-08-21T07:27:10;100316.13;;;22.14;nan
62800;BME280;48842;51.046;13.796;2022-08-21T07:29:35;100321.31;;;22.17;nan
62800;BME280;48842;51.046;13.796;2022-08-21T07:32:01;100323.75;;;22.22;nan
62800;BME280;48842;51.046;13.796;2022-08-21T07:34:26;100323.41;;;22.29;nan
62800;BME280;48842;51.046;13.796;2022-08-21T07:36:51;100322.47;;;22.30;nan
62800;BME280;48842;51.046;13.796;2022-08-21T07:39:17;100331.28;;;22.34;nan
62800;BME280;48842;51.046;13.796;2022-08-21T07:41:42;100329.31;;;22.38;nan
62800;BME280;48842;51.046;13.796;2022-08-21T07:44:07;100330.97;;;22.40;nan
62800;BME280;48842;51.046;13.796;2022-08-21T07:46:32;100346.00;;;22.43;nan
62800;BME280;48842;51.046;13.796;2022-08-21T07:48:58;100345.72;;;22.49;nan
62800;BME280;48842;51.046;13.796;2022-08-21T07:51:26;100345.56;;;22.52;nan
62800;BME280;48842;51.046;13.796;2022-08-21T07:53:54;100349.91;;;22.55;nan
62800;BME280;48842;51.046;13.796;2022-08-21T07:56:23;100348.16;;;22.54;nan
62800;BME280;48842;51.046;13.796;2022-08-21T07:58:48;100351.75;;;22.53;nan
62800;BME280;48842;51.046;13.796;2022-08-21T08:01:17;100352.75;;;22.50;nan
62800;BME280;48842;51.046;13.796;2022-08-21T08:03:43;100358.25;;;22.47;nan
62800;BME280;48842;51.046;13.796;2022-08-21T08:06:08;100353.78;;;22.47;nan
62800;BME280;48842;51.046;13.796;2022-08-21T08:08:40;100350.97;;;22.51;nan
62800;BME280;48842;51.046;13.796;2022-08-21T08:11:06;100358.91;;;22.52;nan
62800;BME280;48842;51.046;13.796;2022-08-21T08:13:31;100357.25;;;22.49;nan
62800;BME280;48842;51.046;13.796;2022-08-21T08:15:56;100364.41;;;22.49;nan
62800;BME280;48842;51.046;13.796;2022-08-21T08:18:21;100357.59;;;22.42;nan
62800;BME280;48842;51.046;13.796;2022-08-21T08:20:47;100357.53;;;22.43;nan
62800;BME280;48842;51.046;13.796;2022-08-21T08:23:13;100358.19;;;22.48;nan
62800;BME280;48842;51.046;13.796;2022-08-21T08:25:39;100366.06;;;22.52;nan
62800;BME280;48842;51.046;13.796;2022-08-21T08:28:05;100360.72;;;22.52;nan
62800;BME280;48842;51.046;13.796;2022-08-21T08:30:31;100358.78;;;22.55;nan
62800;BME280;48842;51.046;13.796;2022-08-21T08:32:56;100359.41;;;22.60;nan
62800;BME280;48842;51.046;13.796;2022-08-21T08:35:23;100358.56;;;22.60;nan
62800;BME280;48842;51.046;13.796;2022-08-21T08:37:49;100363.91;;;22.60;nan
62800;BME280;48842;51.046;13.796;2022-08-21T08:40:22;100363.91;;;22.60;nan
62800;BME280;48842;51.046;13.796;2022-08-21T08:42:50;100363.84;;;22.61;nan
62800;BME280;48842;51.046;13.796;2022-08-21T08:45:18;100355.59;;;22.66;nan
62800;BME280;48842;51.046;13.796;2022-08-21T08:47:50;100362.53;;;22.70;nan
62800;BME280;48842;51.046;13.796;2022-08-21T08:50:37;100367.25;;;22.65;nan
62800;BME280;48842;51.046;13.796;2022-08-21T08:53:11;100363.91;;;22.60;nan
62800;BME280;48842;51.046;13.796;2022-08-21T08:55:41;100370.78;;;22.65;nan
62800;BME280;48842;51.046;13.796;2022-08-21T08:58:09;100366.81;;;22.74;nan
62800;BME280;48842;51.046;13.796;2022-08-21T09:00:37;100373.75;;;22.78;nan
62800;BME280;48842;51.046;13.796;2022-08-21T09:03:03;100372.84;;;22.78;nan
62800;BME280;48842;51.046;13.796;2022-08-21T09:05:46;100368.78;;;22.71;nan
62800;BME280;48842;51.046;13.796;2022-08-21T09:11:35;100371.28;;;22.74;nan
62800;BME280;48842;51.046;13.796;2022-08-21T09:14:29;100365.13;;;22.72;nan
62800;BME280;48842;51.046;13.796;2022-08-21T09:17:17;100365.06;;;22.73;nan
62800;BME280;48842;51.046;13.796;2022-08-21T09:19:55;100360.78;;;22.69;nan
62800;BME280;48842;51.046;13.796;2022-08-21T09:22:41;100358.00;;;22.72;nan
62800;BME280;48842;51.046;13.796;2022-08-21T09:25:26;100355.34;;;22.72;nan
62800;BME280;48842;51.046;13.796;2022-08-21T09:27:52;100350.13;;;22.69;nan
62800;BME280;48842;51.046;13.796;2022-08-21T09:30:20;100347.34;;;22.72;nan
62800;BME280;48842;51.046;13.796;2022-08-21T09:32:48;100348.88;;;22.76;nan
62800;BME280;48842;51.046;13.796;2022-08-21T09:35:17;100341.03;;;22.73;nan
62800;BME280;48842;51.046;13.796;2022-08-21T09:38:00;100346.03;;;22.81;nan
62800;BME280;48842;51.046;13.796;2022-08-21T09:43:02;100350.72;;;22.95;nan
62800;BME280;48842;51.046;13.796;2022-08-21T09:45:28;100346.09;;;22.98;nan
62800;BME280;48842;51.046;13.796;2022-08-21T09:47:54;100346.66;;;23.05;nan
62800;BME280;48842;51.046;13.796;2022-08-21T09:50:25;100350.03;;;23.10;nan
62800;BME280;48842;51.046;13.796;2022-08-21T09:53:00;100348.25;;;23.09;nan
62800;BME280;48842;51.046;13.796;2022-08-21T09:55:34;100338.38;;;23.11;nan
62800;BME280;48842;51.046;13.796;2022-08-21T09:58:30;100346.44;;;23.10;nan
62800;BME280;48842;51.046;13.796;2022-08-21T10:00:59;100337.44;;;23.12;nan
62800;BME280;48842;51.046;13.796;2022-08-21T10:03:24;100340.97;;;23.13;nan
62800;BME280;48842;51.046;13.796;2022-08-21T10:06:09;100339.56;;;23.04;nan
62800;BME280;48842;51.046;13.796;2022-08-21T10:08:37;100340.38;;;23.06;nan
62800;BME280;48842;51.046;13.796;2022-08-21T10:11:09;100338.63;;;23.05;nan
62800;BME280;48842;51.046;13.796;2022-08-21T10:17:12;100337.50;;;23.11;nan
62800;BME280;48842;51.046;13.796;2022-08-21T10:29:02;100341.41;;;23.23;nan
62800;BME280;48842;51.046;13.796;2022-08-21T10:31:50;100344.72;;;23.28;nan
62800;BME280;48842;51.046;13.796;2022-08-21T10:34:49;100341.81;;;23.32;nan
62800;BME280;48842;51.046;13.796;2022-08-21T10:40:33;100342.06;;;23.28;nan
62800;BME280;48842;51.046;13.796;2022-08-21T10:43:26;100337.63;;;23.27;nan
62800;BME280;48842;51.046;13.796;2022-08-21T10:49:11;100340.06;;;23.31;nan
62800;BME280;48842;51.046;13.796;2022-08-21T10:54:52;100339.22;;;23.31;nan
62800;BME280;48842;51.046;13.796;2022-08-21T10:57:31;100341.88;;;23.31;nan
62800;BME280;48842;51.046;13.796;2022-08-21T11:00:04;100337.16;;;23.36;nan
62800;BME280;48842;51.046;13.796;2022-08-21T11:02:37;100339.84;;;23.36;nan
62800;BME280;48842;51.046;13.796;2022-08-21T11:05:20;100341.50;;;23.39;nan
62800;BME280;48842;51.046;13.796;2022-08-21T11:07:50;100344.84;;;23.44;nan
62800;BME280;48842;51.046;13.796;2022-08-21T11:10:25;100343.72;;;23.48;nan
62800;BME280;48842;51.046;13.796;2022-08-21T11:13:02;100345.44;;;23.49;nan
62800;BME280;48842;51.046;13.796;2022-08-21T11:15:38;100347.13;;;23.51;nan
62800;BME280;48842;51.046;13.796;2022-08-21T11:19:07;100348.53;;;23.59;nan
62800;BME280;48842;51.046;13.796;2022-08-21T11:21:36;100343.88;;;23.62;nan
62800;BME280;48842;51.046;13.796;2022-08-21T11:24:30;100348.31;;;23.63;nan
62800;BME280;48842;51.046;13.796;2022-08-21T11:27:18;100341.28;;;23.61;nan
62800;BME280;48842;51.046;13.796;2022-08-21T11:29:55;100347.22;;;23.67;nan
62800;BME280;48842;51.046;13.796;2022-08-21T11:32:45;100333.50;;;23.56;nan
62800;BME280;48842;51.046;13.796;2022-08-21T11:35:26;100334.69;;;23.50;nan
62800;BME280;48842;51.046;13.796;2022-08-21T11:45:43;100329.59;;;23.81;nan
62800;BME280;48842;51.046;13.796;2022-08-21T11:48:26;100328.44;;;23.86;nan
62800;BME280;48842;51.046;13.796;2022-08-21T11:50:55;100330.94;;;23.90;nan
62800;BME280;48842;51.046;13.796;2022-08-21T11:53:33;100321.03;;;23.92;nan
62800;BME280;48842;51.046;13.796;2022-08-21T11:56:26;100322.84;;;23.91;nan
62800;BME280;48842;51.046;13.796;2022-08-21T11:58:52;100325.34;;;23.94;nan
62800;BME280;48842;51.046;13.796;2022-08-21T12:01:23;100316.31;;;23.97;nan
62800;BME280;48842;51.046;13.796;2022-08-21T12:03:56;100314.72;;;23.93;nan
62800;BME280;48842;51.046;13.796;2022-08-21T12:06:38;100325.44;;;23.93;nan
62800;BME280;48842;51.046;13.796;2022-08-21T12:09:32;100316.47;;;23.94;nan
62800;BME280;48842;51.046;13.796;2022-08-21T12:12:13;100308.13;;;24.00;nan
62800;BME280;48842;51.046;13.796;2022-08-21T12:14:48;100318.31;;;24.09;nan
62800;BME280;48842;51.046;13.796;2022-08-21T12:17:22;100313.94;;;24.08;nan
62800;BME280;48842;51.046;13.796;2022-08-21T12:19:59;100306.59;;;24.12;nan
62800;BME280;48842;51.046;13.796;2022-08-21T12:22:38;100315.34;;;24.15;nan
62800;BME280;48842;51.046;13.796;2022-08-21T12:25:07;100308.16;;;24.16;nan
62800;BME280;48842;51.046;13.796;2022-08-21T12:28:10;100304.47;;;24.18;nan
62800;BME280;48842;51.046;13.796;2022-08-21T12:30:46;100307.16;;;24.18;nan
62800;BME280;48842;51.046;13.796;2022-08-21T12:36:12;100304.38;;;24.20;nan
62800;BME280;48842;51.046;13.796;2022-08-21T12:38:58;100308.56;;;24.26;nan
62800;BME280;48842;51.046;13.796;2022-08-21T12:41:32;100307.75;;;24.23;nan
62800;BME280;48842;51.046;13.796;2022-08-21T12:44:05;100299.06;;;24.36;nan
62800;BME280;48842;51.046;13.796;2022-08-21T12:46:45;100304.69;;;24.47;nan
62800;BME280;48842;51.046;13.796;2022-08-21T12:49:21;100305.13;;;24.55;nan
62800;BME280;48842;51.046;13.796;2022-08-21T12:52:00;100289.97;;;24.72;nan
62800;BME280;48842;51.046;13.796;2022-08-21T12:54:32;100287.03;;;24.92;nan
62800;BME280;48842;51.046;13.796;2022-08-21T12:57:04;100293.75;;;25.16;nan
62800;BME280;48842;51.046;13.796;2022-08-21T12:59:31;100287.06;;;25.39;nan
62800;BME280;48842;51.046;13.796;2022-08-21T13:01:59;100282.38;;;25.58;nan
62800;BME280;48842;51.046;13.796;2022-08-21T13:04:35;100276.69;;;25.93;nan
62800;BME280;48842;51.046;13.796;2022-08-21T13:07:06;100283.06;;;26.36;nan
62800;BME280;48842;51.046;13.796;2022-08-21T13:09:36;100282.59;;;26.85;nan
62800;BME280;48842;51.046;13.796;2022-08-21T13:12:07;100277.56;;;27.35;nan
62800;BME280;48842;51.046;13.796;2022-08-21T13:14:37;100270.13;;;27.79;nan
62800;BME280;48842;51.046;13.796;2022-08-21T13:17:04;100270.75;;;28.21;nan
62800;BME280;48842;51.046;13.796;2022-08-21T13:19:30;100273.53;;;28.45;nan
62800;BME280;48842;51.046;13.796;2022-08-21T13:21:57;100269.19;;;28.68;nan
62800;BME280;48842;51.046;13.796;2022-08-21T13:24:26;100287.69;;;28.86;nan
62800;BME280;48842;51.046;13.796;2022-08-21T13:26:52;100267.19;;;28.83;nan
62800;BME280;48842;51.046;13.796;2022-08-21T13:29:20;100273.88;;;28.90;nan
62800;BME280;48842;51.046;13.796;2022-08-21T13:31:54;100268.75;;;28.75;nan
62800;BME280;48842;51.046;13.796;2022-08-21T13:34:25;100268.78;;;28.62;nan
62800;BME280;48842;51.046;13.796;2022-08-21T13:36:55;100271.28;;;28.52;nan
62800;BME280;48842;51.046;13.796;2022-08-21T13:39:21;100276.69;;;28.13;nan
62800;BME280;48842;51.046;13.796;2022-08-21T13:41:49;100278.38;;;27.89;nan
62800;BME280;48842;51.046;13.796;2022-08-21T13:44:19;100270.84;;;27.68;nan
62800;BME280;48842;51.046;13.796;2022-08-21T13:46:46;100263.06;;;27.50;nan
62800;BME280;48842;51.046;13.796;2022-08-21T13:49:16;100270.84;;;27.28;nan